Home > Products > Valid Products > TAF

000
FTUS43 KDLH 311700
TAFINL
TAF
KINL 311733Z 3118/0118 VRB03KT P6SM SKC=



000
FTUS43 KDLH 311700
TAFDLH
TAF
KDLH 311733Z 3118/0118 01010KT P6SM FEW025
     FM312300 36004KT P6SM SKC
     FM010200 VRB02KT P6SM SKC=



000
FTUS43 KDLH 311700
TAFHYR
TAF
KHYR 311733Z 3118/0118 02014G21KT P6SM FEW040
     FM010100 VRB03KT P6SM SKC=



000
FTUS43 KDLH 311700
TAFBRD
TAF
KBRD 311733Z 3118/0118 VRB03KT P6SM SKC=



000
FTUS43 KDLH 311400 AAA
TAFHYR
TAF AMD
KHYR 311445Z 3115/0112 01009KT P6SM BKN035
     FM311800 02007KT P6SM SCT035
     FM010100 VRB03KT P6SM SKC=



000
FTUS43 KDLH 311200 AAA
TAFDLH
TAF AMD
KDLH 311227Z 3112/0112 03011KT P6SM SCT035
      TEMPO 3112/3115 BKN025
     FM311500 36008G16KT P6SM SCT035
     FM311900 36004KT P6SM SKC
     FM010200 VRB02KT P6SM SKC=



000
FTUS43 KDLH 311100
TAFHYR
TAF
KHYR 311120Z 3112/0112 36011KT P6SM SCT025
      TEMPO 3112/3115 BKN025
     FM311500 01009KT P6SM SCT035
     FM010100 VRB03KT P6SM SKC=



000
FTUS43 KDLH 311100
TAFBRD
TAF
KBRD 311120Z 3112/0112 36008KT P6SM SKC
     FM311600 01007KT P6SM SCT030
     FM010100 VRB03KT P6SM SKC=



000
FTUS43 KDLH 311100
TAFINL
TAF
KINL 311120Z 3112/0112 36008KT P6SM BKN024
      TEMPO 3112/3115 SCT025
     FM311500 30006KT P6SM SCT025
     FM010300 19005KT P6SM SKC=



000
FTUS43 KDLH 311100
TAFDLH
TAF
KDLH 311120Z 3112/0112 03014G21KT P6SM OVC028
      TEMPO 3112/3115 SCT025 BKN035
     FM311500 36008G16KT P6SM SCT035
     FM311900 36004KT P6SM SKC
     FM010200 VRB02KT P6SM SKC=



000
FTUS43 KDLH 311000 AAA
TAFINL
TAF AMD
KINL 311011Z 3110/0106 01011G17KT P6SM SCT015 BKN035
      TEMPO 3110/3114 BKN025
     FM311600 31008KT P6SM SCT020
     FM312200 24004KT P6SM SCT200
     FM010300 16004KT P6SM FEW250=



000
FTUS43 KDLH 310900 AAA
TAFDLH
TAF AMD
KDLH 310945Z 3110/0106 36012G21KT P6SM BKN025 OVC035
      TEMPO 3110/3114 SCT025 BKN035
     FM311400 36009G17KT P6SM SCT035
     FM312200 33004KT P6SM SKC=



000
FTUS43 KDLH 310900 AAA
TAFHYR
TAF AMD
KHYR 310906Z 3109/0106 36010G18KT P6SM SCT025 BKN035
      TEMPO 3109/3113 BKN025
     FM311700 02007KT P6SM SCT035
     FM010000 VRB03KT P6SM FEW035=



000
FTUS43 KDLH 310700 AAA
TAFDLH
TAF AMD
KDLH 310703Z 3107/0106 34018G25KT P6SM SCT028 BKN040
     FM310900 36014G21KT P6SM SCT015
     FM311600 01010G17KT P6SM FEW025
     FM312200 33004KT P6SM SKC=



000
FTUS43 KDLH 310500
TAFDLH
TAF
KDLH 310520Z 3106/0106 34018G30KT P6SM SCT028 BKN040
     FM310900 36014G21KT P6SM SCT015
     FM311600 01010G17KT P6SM FEW025
     FM312200 33004KT P6SM SKC=



000
FTUS43 KDLH 310500
TAFHYR
TAF
KHYR 310520Z 3106/0106 36010G18KT P6SM SCT025 BKN035
      TEMPO 3106/3109 BKN015
     FM310900 36008KT P6SM SCT020 BKN040
     FM311700 02007KT P6SM SCT035
     FM010000 VRB03KT P6SM FEW035=



000
FTUS43 KDLH 310500
TAFINL
TAF
KINL 310520Z 3106/0106 01013G18KT P6SM SCT015 BKN035
      TEMPO 3106/3110 BKN030
     FM311300 35005KT P6SM FEW015
     FM311600 31008KT P6SM SCT020
     FM312200 24004KT P6SM SCT200
     FM010300 16004KT P6SM FEW250=



000
FTUS43 KDLH 310500
TAFBRD
TAF
KBRD 310520Z 3106/0106 36014G22KT P6SM SCT035
      TEMPO 3106/3108 BKN035
     FM310900 34010KT P6SM FEW025
     FM311600 36007KT P6SM SCT025
     FM312300 VRB03KT P6SM SCT250=



000
FTUS43 KDLH 310500 AAB
TAFINL
TAF AMD
KINL 310501Z 3105/3124 36013G19KT P6SM SCT015 BKN035
      TEMPO 3105/3109 -SN BKN030
     FM311300 35005KT P6SM FEW015
     FM311600 31008KT P6SM SCT020
     FM312200 24004KT P6SM SCT200=



000
FTUS43 KDLH 310400 AAC
TAFHYR
TAF AMD
KHYR 310451Z 3105/3124 35010G20KT P6SM BKN035
      TEMPO 3105/3106 2SM -SHSN BKN018
     FM310600 36010G16KT P6SM SCT028 BKN040
      TEMPO 3106/3109 BKN028
     FM310900 36008KT P6SM SCT020 BKN040
     FM311700 02007KT P6SM SCT035=



000
FTUS43 KDLH 310300 AAB
TAFDLH
TAF AMD
KDLH 310303Z 3103/3124 35019G30KT P6SM SCT028 BKN040
      TEMPO 3103/3106 BKN028
     FM310800 36014G21KT P6SM SCT015
     FM311600 01011G18KT P6SM SKC=



000
FTUS43 KDLH 310200 AAA
TAFDLH
TAF AMD
KDLH 310228Z 3102/3124 35018G28KT P6SM SCT025 BKN040
      TEMPO 3103/3106 SCT040
     FM310800 36014G21KT P6SM SCT015
     FM311600 01011G18KT P6SM SKC=



000
FTUS43 KDLH 310200 AAB
TAFHYR
TAF AMD
KHYR 310213Z 3102/3124 35012G23KT P6SM BKN035
      TEMPO 3102/3104 3SM -SHSN BKN030
     FM310500 36010G16KT P6SM SCT020
     FM310900 36008KT P6SM SCT020=



000
FTUS43 KDLH 310100 AAA
TAFINL
TAF AMD
KINL 310133Z 3102/3124 34014G24KT P6SM BKN040
     FM310600 36010G18KT P6SM SCT015 BKN035
      TEMPO 3106/3108 BKN015
     FM310800 35010KT P6SM BKN015
     FM311600 31008KT P6SM SCT020
     FM312200 24004KT P6SM SCT200=



000
FTUS43 KDLH 310100 AAA
TAFHYR
TAF AMD
KHYR 310118Z 3101/3124 33011G21KT P6SM BKN035
      TEMPO 3101/3102 34015G26KT 1 1/2SM -SHRASN BKN020
     FM310200 33010G17KT P6SM BKN035
      TEMPO 3102/3104 3SM -SHSN BKN030
     FM310500 36010G16KT P6SM SCT020
     FM310900 36008KT P6SM SCT020=



000
FTUS43 KDLH 302300
TAFHYR
TAF
KHYR 302334Z 3100/3124 33011KT P6SM BKN035
      TEMPO 3100/3102 34015G26KT 3SM -SHRASN BKN025
     FM310200 33010G17KT P6SM BKN035
      TEMPO 3102/3104 2SM -SHSN BKN020
     FM310500 36010G16KT P6SM SCT020
     FM310900 36008KT P6SM SCT020=



000
FTUS43 KDLH 302300
TAFBRD
TAF
KBRD 302334Z 3100/3124 34017G25KT P6SM SCT025 BKN040
     FM310130 35012G20KT P6SM SCT035
     FM310800 34010KT P6SM FEW025
     FM311600 36007KT P6SM SCT025
     FM312300 VRB03KT P6SM SCT250=



000
FTUS43 KDLH 302300
TAFINL
TAF
KINL 302334Z 3100/3124 34019G28KT P6SM SCT035
      TEMPO 3100/3102 BKN035
     FM310300 34013G24KT P6SM SCT015 SCT050
     FM310600 36010G18KT P6SM SCT015
      TEMPO 3106/3108 BKN015
     FM310800 35010KT P6SM BKN015
     FM311600 31008KT P6SM SCT020
     FM312200 24004KT P6SM SCT200=



000
FTUS43 KDLH 302300
TAFDLH
TAF
KDLH 302334Z 3100/3124 34015G25KT P6SM SCT025 BKN040
      TEMPO 3100/3102 34020G30KT 4SM -SHSN BKN025
     FM310200 35020G28KT P6SM SCT025
     FM310800 36014G21KT P6SM SCT015
     FM311600 01011G18KT P6SM SKC=



000
FTUS43 KDLH 302200 AAB
TAFDLH
TAF AMD
KDLH 302255Z 3023/3118 33015G26KT P6SM SCT025 BKN040
      TEMPO 3023/3101 34020G35KT 1SM -SHSN BKN015
     FM310200 35020G28KT P6SM SCT025
     FM310800 36014G21KT P6SM SCT015
     FM311600 01011G18KT P6SM SKC=



000
FTUS43 KDLH 302100 AAA
TAFDLH
TAF AMD
KDLH 302100Z 3021/3118 31014G23KT P6SM VCSH SCT016 BKN035
      TEMPO 3021/3023 5SM -SHRA BR BKN016 OVC025
     FM302300 33019G27KT P6SM SCT025 BKN050
     FM310200 35020G28KT P6SM SCT025
     FM310800 36014G21KT P6SM SCT050
     FM311600 01013G20KT P6SM SKC=



000
FTUS43 KDLH 302000 AAB
TAFINL
TAF AMD
KINL 302047Z 3021/3118 34019G32KT P6SM VCSH SCT015 OVC040
      TEMPO 3021/3023 3/4SM -SHSN BR BKN013 OVC040
     FM302300 33019G27KT P6SM SCT035
     FM310200 34016G28KT P6SM FEW035
     FM310600 35012G20KT P6SM SKC
     FM311600 31009KT P6SM SKC=



000
FTUS43 KDLH 302000 AAA
TAFBRD
TAF AMD
KBRD 302044Z 3021/3118 34017G25KT P6SM VCSH BKN025 OVC035
     FM310400 35015G23KT P6SM SCT035
     FM310800 34010G17KT P6SM SKC
     FM311600 36010KT P6SM FEW250=



000
FTUS43 KDLH 301900 AAA
TAFINL
TAF AMD
KINL 301940Z 3020/3118 32016G23KT P6SM VCSH SCT015 OVC040
      TEMPO 3020/3022 3/4SM -SHSN BR BKN013 OVC040
     FM302200 33015G27KT P6SM BKN025 OVC035
     FM310200 34016G28KT P6SM FEW035
     FM310600 35012G20KT P6SM SKC
     FM311600 31009KT P6SM SKC=



000
FTUS43 KDLH 301700
TAFHYR
TAF
KHYR 301723Z 3018/3118 30004KT P6SM VCSH SCT018 OVC050
      TEMPO 3018/3022 BKN020 OVC035
     FM302200 33007KT P6SM BKN025 OVC035
     FM310200 33011G18KT P6SM OVC035
     FM310900 36009KT P6SM FEW035
     FM311600 02009KT P6SM FEW250=



000
FTUS43 KDLH 301700
TAFDLH
TAF
KDLH 301723Z 3018/3118 33010KT P6SM VCSH SCT016 OVC025
      TEMPO 3018/3021 BKN016 OVC025
     FM302100 33016G23KT P6SM VCSH OVC015
     FM302300 33019G27KT P6SM BKN025 OVC050
     FM310200 35020G28KT P6SM SCT025 OVC050
     FM310800 36014G21KT P6SM SCT050
     FM311600 01013G20KT P6SM SKC=



000
FTUS43 KDLH 301700
TAFBRD
TAF
KBRD 301723Z 3018/3118 36008KT P6SM VCSH BKN015 OVC025
      TEMPO 3018/3022 SCT015 OVC025
     FM302200 34013G20KT P6SM BKN025 OVC035
     FM310400 35015G23KT P6SM SCT035
     FM310800 34010G17KT P6SM SKC
     FM311600 36010KT P6SM FEW250=



000
FTUS43 KDLH 301700
TAFINL
TAF
KINL 301723Z 3018/3118 32016G23KT P6SM SCT015 OVC040
      TEMPO 3018/3022 2SM -SHSN BR BKN009 OVC015
     FM302200 33015G27KT P6SM BKN025 OVC035
     FM310200 34016G28KT P6SM FEW035
     FM310600 35012G20KT P6SM SKC
     FM311600 31009KT P6SM SKC=



000
FTUS43 KDLH 301600 AAA
TAFHYR
TAF AMD
KHYR 301628Z 3016/3112 26003KT P6SM VCSH SCT025 OVC080
      TEMPO 3016/3018 6SM -SHRA BKN025
     FM301800 30007KT P6SM VCSH BKN025
     FM302100 32009KT P6SM BKN025 BKN080
     FM310100 34014G22KT P6SM BKN025
     FM310400 35015G24KT P6SM BKN015 OVC030=



000
FTUS43 KDLH 301600 AAA
TAFHYR
TAF AMD
KHYR 301628Z 3016/3112 26003KT P6SM VCSH SCT025 OVC080
      TEMPO 3016/3018 6SM -SHRA BKN025
     FM301800 30007KT P6SM VCSH BKN025
     FM302100 32009KT P6SM BKN025 BKN080
     FM310100 34014G22KT P6SM BKN025
     FM310400 35015G24KT P6SM BKN015 OVC030=



000
FTUS43 KDLH 301600 AAA
TAFBRD
TAF AMD
KBRD 301626Z 3016/3112 01005KT P6SM VCSH SCT009 OVC015
      TEMPO 3016/3018 5SM -SHRA BR BKN015 OVC035
     FM301800 35009KT P6SM OVC015
     FM302100 34012G23KT P6SM SCT035
     FM302300 34015G26KT P6SM SCT050
     FM310400 36012KT P6SM SKC=



000
FTUS43 KDLH 301600 AAA
TAFBRD
TAF AMD
KBRD 301626Z 3016/3112 01005KT P6SM VCSH SCT009 OVC015
      TEMPO 3016/3018 5SM -SHRA BR BKN015 OVC035
     FM301800 35009KT P6SM OVC015
     FM302100 34012G23KT P6SM SCT035
     FM302300 34015G26KT P6SM SCT050
     FM310400 36012KT P6SM SKC=



000
FTUS43 KDLH 301500 AAA
TAFDLH
TAF AMD
KDLH 301514Z 3015/3112 31007KT P6SM VCSH BKN009 OVC020
      TEMPO 3015/3018 BKN013 OVC025
     FM301800 31010KT P6SM VCSH BKN020 OVC080
     FM302300 33014G24KT P6SM SCT035 SCT050
     FM310200 35014G26KT P6SM BKN025
     FM310900 35012G20KT P6SM BKN015=



000
FTUS43 KDLH 301500 AAC
TAFINL
TAF AMD
KINL 301509Z 3015/3112 30007KT P6SM VCSH OVC006
      TEMPO 3015/3018 SCT008 OVC015
     FM301800 32015G25KT P6SM SCT015 BKN040
     FM302100 34015G26KT P6SM BKN035
     FM310700 35012G20KT P6SM SCT035=



000
FTUS43 KDLH 301300 AAB
TAFINL
TAF AMD
KINL 301316Z 3013/3112 32005KT P6SM VCSH BKN015 OVC050
      TEMPO 3013/3015 OVC004
     FM301800 32015G25KT P6SM SCT015 BKN040
     FM302100 34015G26KT P6SM BKN035
     FM310700 35012G20KT P6SM SCT035=



000
FTUS43 KDLH 301300 AAA
TAFDLH
TAF AMD
KDLH 301314Z 3013/3112 31004KT P6SM VCSH FEW003 OVC019
      TEMPO 3013/3017 28004KT P6SM SCT019 OVC025
     FM301700 31010KT P6SM VCSH BKN020 OVC080
     FM302300 33014G24KT P6SM SCT035 SCT050
     FM310200 35014G26KT P6SM BKN025
     FM310900 35012G20KT P6SM BKN015=



000
FTUS43 KDLH 301200 AAA
TAFINL
TAF AMD
KINL 301212Z 3012/3112 29004KT P6SM VCSH BKN015 OVC050
      TEMPO 3012/3015 6SM -RA OVC006
     FM301800 32015G25KT P6SM SCT015 BKN040
     FM302100 34015G26KT P6SM BKN035
     FM310700 35012G20KT P6SM SCT035=



000
FTUS43 KDLH 301100 RRA
TAFINL
TAF
KINL 301141Z 3012/3112 29004KT P6SM VCSH BKN015 OVC050
      TEMPO 3012/3015 6SM -RA
     FM301800 32015G25KT P6SM SCT015 BKN040
     FM302100 34015G26KT P6SM BKN035
     FM310700 35012G20KT P6SM SCT035=



000
FTUS43 KDLH 301100 RRA
TAFDLH
TAF
KDLH 301141Z 3012/3112 28003KT P6SM VCSH BKN025 OVC090
      TEMPO 3012/3016 28004KT P6SM SCT025 BKN080
     FM301900 31010KT P6SM VCSH BKN020 OVC080
     FM302300 33014G24KT P6SM SCT035 SCT050
     FM310200 35014G26KT P6SM BKN025
     FM310900 35012G20KT P6SM BKN015=



000
FTUS43 KDLH 301100 RRA
TAFHYR
TAF
KHYR 301141Z 3012/3112 20003KT P6SM VCSH SCT025 OVC080
      TEMPO 3012/3016 6SM -SHRA BKN025
     FM301600 30007KT P6SM VCSH BKN025
     FM302100 32009KT P6SM BKN025 BKN080
     FM310100 34014G22KT P6SM BKN025
     FM310400 35015G24KT P6SM BKN015 OVC030=



000
FTUS43 KDLH 301100 RRA
TAFBRD
TAF
KBRD 301141Z 3012/3112 00000KT P6SM VCSH OVC040
      TEMPO 3012/3016 4SM -SHRA BR BKN015 OVC035
     FM301600 35006KT P6SM OVC015
     FM302100 34012G23KT P6SM SCT035
     FM302300 34015G26KT P6SM SCT050
     FM310400 36012KT P6SM SKC=



000
FTUS43 KDLH 301100 AAA
TAFDLH
TAF AMD
KDLH 301111Z 3011/3106 29003KT P6SM VCSH OVC025
      TEMPO 3011/3015 28004KT P6SM SCT025 BKN080
     FM301800 33012G22KT P6SM SCT080
     FM302300 34017G27KT P6SM SKC=



000
FTUS43 KDLH 301100 AAC
TAFHYR
TAF AMD
KHYR 301102Z 3011/3106 21004KT P6SM VCSH SCT025 OVC080
      TEMPO 3011/3015 6SM -SHRA BKN025
     FM301600 32007KT P6SM VCSH SCT022 BKN080
     FM302200 32010KT P6SM SCT080
     FM310300 34014KT P6SM BKN030=



000
FTUS43 KDLH 301100 AAC
TAFHYR
TAF AMD
KHYR 301102Z 3011/3106 21004KT P6SM VCSH SCT025 OVC080
      TEMPO 3011/3015 6SM -SHRA BKN025
     FM301600 32007KT P6SM VCSH SCT022 BKN080
     FM302200 32010KT P6SM SCT080
     FM310300 34014KT P6SM BKN030=



000
FTUS43 KDLH 300900 AAB
TAFHYR
TAF AMD
KHYR 300928Z 3009/3106 23004KT P6SM VCSH OVC025
      TEMPO 3009/3013 OVC015
     FM301600 32007KT P6SM VCSH SCT022 BKN080
     FM302200 32010KT P6SM SCT080
     FM310300 34014KT P6SM BKN030=



000
FTUS43 KDLH 300900 AAB
TAFINL
TAF AMD
KINL 300927Z 3009/3106 22004KT P6SM VCSH BKN015 OVC030
      TEMPO 3009/3013 6SM -RA SCT015 BKN050
     FM301400 33008KT P6SM VCSH OVC015
     FM301700 33015G25KT P6SM SCT015 BKN040
     FM310300 34010KT P6SM SKC=



000
FTUS43 KDLH 300700 AAA
TAFINL
TAF AMD
KINL 300706Z 3007/3106 22004KT P6SM VCSH OVC007
     FM301400 33008KT P6SM VCSH OVC015
     FM301700 33015G25KT P6SM SCT015 BKN040
     FM310300 34010KT P6SM SKC=



000
FTUS43 KDLH 300600 AAA
TAFHYR
TAF AMD
KHYR 300635Z 3007/3106 23004KT P6SM VCSH OVC018
     FM301600 32007KT P6SM VCSH SCT022 BKN080
     FM302200 32010KT P6SM SCT080
     FM310300 34014KT P6SM BKN030=



000
FTUS43 KDLH 300500
TAFINL
TAF
KINL 300537Z 3006/3106 22004KT P6SM VCSH OVC007
     FM300700 28003KT P6SM VCSH SCT013 OVC030
     FM301400 33008KT P6SM VCSH OVC015
     FM301700 33015G25KT P6SM SCT015 BKN040
     FM310300 34010KT P6SM SKC=



000
FTUS43 KDLH 300500
TAFBRD
TAF
KBRD 300537Z 3006/3106 VRB03KT P6SM BKN110
     FM300900 18002KT P6SM VCSH SCT040 BKN060
     FM301600 34006KT P6SM BKN040
     FM302000 34013G23KT P6SM SCT040=



000
FTUS43 KDLH 300500
TAFHYR
TAF
KHYR 300537Z 3006/3106 23004KT P6SM VCSH OVC020
     FM301000 VRB03KT P6SM VCSH OVC080
     FM301600 32007KT P6SM VCSH SCT022 BKN080
     FM302200 32010KT P6SM SCT080
     FM310300 34014KT P6SM BKN030=



000
FTUS43 KDLH 300500
TAFDLH
TAF
KDLH 300537Z 3006/3106 27005KT P6SM VCSH OVC013
     FM300800 VRB04KT P6SM VCSH BKN015 OVC025
     FM301100 28004KT P6SM BKN080
     FM301800 33012G22KT P6SM SCT080
     FM302300 34017G27KT P6SM SKC=



000
FTUS43 KDLH 300400 AAC
TAFINL
TAF AMD
KINL 300411Z 3004/3024 22004KT P6SM VCSH OVC007
     FM300700 23003KT P6SM VCSH OVC012
     FM301400 33008KT P6SM VCSH OVC015
     FM301700 33015G25KT P6SM SCT015 BKN040=



000
FTUS43 KDLH 300400 AAC
TAFINL
TAF AMD
KINL 300411Z 3004/3024 22004KT P6SM VCSH OVC007
     FM300700 23003KT P6SM VCSH OVC012
     FM301400 33008KT P6SM VCSH OVC015
     FM301700 33015G25KT P6SM SCT015 BKN040=



000
FTUS43 KDLH 300300 AAB
TAFBRD
TAF AMD
KBRD 300301Z 3003/3024 00000KT P6SM SCT022 BKN120
     FM300500 VRB03KT P6SM SCT040 OVC060
     FM300900 18002KT P6SM VCSH SCT040 BKN060
     FM301600 34006KT P6SM BKN040
     FM302000 34013G23KT P6SM SCT040=



000
FTUS43 KDLH 300300 AAB
TAFINL
TAF AMD
KINL 300300Z 3003/3024 26003KT 5SM BR VCSH OVC005
     FM300700 23003KT P6SM VCSH OVC012
     FM301400 33008KT P6SM VCSH OVC015
     FM301700 33015G25KT P6SM SCT015 BKN040=



000
FTUS43 KDLH 300200 AAA
TAFINL
TAF AMD
KINL 300207Z 3002/3024 24003KT P6SM VCSH BKN008 OVC012
     FM300300 23004KT P6SM VCSH SCT015 OVC080
     FM300700 23003KT P6SM VCSH OVC012
     FM301400 33008KT P6SM VCSH OVC015
     FM301700 33015G25KT P6SM SCT015 BKN040=



000
FTUS43 KDLH 300200 AAA
TAFDLH
TAF AMD
KDLH 300203Z 3002/3024 29006KT P6SM OVC012
     FM300800 VRB04KT P6SM VCSH BKN015 OVC025
     FM301100 VRB04KT P6SM BKN080
     FM301800 33012G22KT P6SM SCT080=



000
FTUS43 KDLH 300100 AAA
TAFHYR
TAF AMD
KHYR 300159Z 3002/3024 24006KT P6SM OVC018
      TEMPO 3002/3003 OVC020
     FM300600 VRB03KT P6SM SCT023 BKN100
     FM301000 VRB03KT P6SM VCSH OVC080
     FM301600 32007KT P6SM SCT022 BKN080=



000
FTUS43 KDLH 300100 AAA
TAFBRD
TAF AMD
KBRD 300117Z 3001/3024 25006KT P6SM OVC018
     FM300200 VRB04KT P6SM SCT023 BKN100
     FM300500 VRB03KT P6SM SCT040 OVC060
     FM300900 18002KT P6SM VCSH SCT040 BKN060
     FM301600 34006KT P6SM BKN040
     FM302000 34013G23KT P6SM SCT040=



000
FTUS43 KDLH 292300
TAFHYR
TAF
KHYR 292339Z 3000/3024 23005KT P6SM OVC018
     FM300600 VRB03KT P6SM SCT023 BKN100
     FM301000 VRB03KT P6SM VCSH OVC080
     FM301600 32007KT P6SM SCT022 BKN080=



000
FTUS43 KDLH 292300
TAFINL
TAF
KINL 292339Z 3000/3024 25006KT P6SM SCT005 OVC013
     FM300300 23004KT P6SM VCSH SCT015 OVC080
     FM300700 23003KT P6SM VCSH OVC012
     FM301400 33008KT P6SM VCSH OVC015
     FM301700 33015G25KT P6SM SCT015 BKN040=



000
FTUS43 KDLH 292300
TAFBRD
TAF
KBRD 292339Z 3000/3024 23004KT P6SM OVC018
     FM300100 VRB04KT P6SM SCT023 BKN100
     FM300500 VRB03KT P6SM SCT040 OVC060
     FM300900 18002KT P6SM VCSH SCT040 BKN060
     FM301600 34006KT P6SM BKN040
     FM302000 34013G23KT P6SM SCT040=



000
FTUS43 KDLH 292300
TAFDLH
TAF
KDLH 292339Z 3000/3024 26008KT P6SM OVC013
     FM300200 25005KT P6SM BKN022
     FM300400 25004KT P6SM SCT022 BKN100
     FM300800 VRB04KT P6SM VCSH BKN015 OVC025
     FM301100 VRB04KT P6SM BKN080
     FM301800 33012G22KT P6SM SCT080=



000
FTUS43 KDLH 292200 AAD
TAFINL
TAF AMD
KINL 292206Z 2922/3018 27004KT P6SM BKN013 OVC019
      TEMPO 2922/2924 5SM BR BKN009
     FM300000 22005KT P6SM SCT013 BKN025 OVC040
     FM300300 23004KT P6SM VCSH BKN015 OVC035
     FM300700 23003KT P6SM -RASN OVC012
     FM301400 33013KT P6SM -SHSN OVC015=



000
FTUS43 KDLH 292200 AAB
TAFHYR
TAF AMD
KHYR 292205Z 2922/3018 23005KT P6SM OVC020
     FM300200 VRB03KT P6SM OVC035
     FM301000 VRB03KT P6SM VCSH OVC035
     FM301600 29003KT P6SM VCSH OVC025=



000
FTUS43 KDLH 292200 AAB
TAFBRD
TAF AMD
KBRD 292204Z 2922/3018 29005KT P6SM OVC017
     FM300100 21004KT P6SM SCT035 BKN080
     FM300500 17004KT P6SM BKN040 OVC060
     FM301000 18002KT P6SM -SHRA SCT015 OVC035
     FM301500 35010KT P6SM VCSH OVC025=



000
FTUS43 KDLH 292000 AAC
TAFINL
TAF AMD
KINL 292005Z 2920/3018 25007KT P6SM BKN011 BKN020 OVC050
     FM300000 22005KT P6SM SCT013 BKN025 OVC040
     FM300300 23004KT P6SM VCSH BKN015 OVC035
     FM300700 23003KT P6SM -RASN OVC012
     FM301400 33013KT P6SM -SHSN OVC015=



000
FTUS43 KDLH 292000 AAA
TAFBRD
TAF AMD
KBRD 292002Z 2920/3018 28007KT P6SM OVC014
     FM292200 27006KT P6SM BKN022 OVC040
     FM300100 21004KT P6SM SCT035 BKN080
     FM300500 17004KT P6SM BKN040 OVC060
     FM301000 18002KT P6SM -SHRA SCT015 OVC035
     FM301500 35010KT P6SM VCSH OVC025=



000
FTUS43 KDLH 292000 AAA
TAFDLH
TAF AMD
KDLH 292001Z 2920/3018 28009KT P6SM OVC015
     FM300200 25005KT P6SM BKN022 OVC040
     FM300800 19004KT P6SM -RASN BKN015 OVC025
     FM301500 33009KT P6SM -RA OVC025=



000
FTUS43 KDLH 291900 AAA
TAFHYR
TAF AMD
KHYR 291916Z 2919/3018 VRB05KT P6SM OVC017
      TEMPO 2919/2922 OVC021
     FM292200 25004KT P6SM SCT025 BKN035
     FM300200 VRB03KT P6SM OVC035
     FM301000 VRB03KT P6SM VCSH OVC035
     FM301600 29003KT P6SM VCSH OVC025=



000
FTUS43 KDLH 291900 AAB
TAFINL
TAF AMD
KINL 291911Z 2919/3018 25007KT P6SM BKN007 OVC014
      TEMPO 2919/2922 SCT007 OVC016
     FM292200 22005KT P6SM BKN025 OVC040
     FM300300 23004KT P6SM VCSH BKN015 OVC035
     FM300700 23003KT P6SM -RASN OVC012
     FM301400 33013KT P6SM -SHSN OVC015=



000
FTUS43 KDLH 291700 AAA
TAFINL
TAF AMD
KINL 291739Z 2918/3018 25007KT P6SM BKN012 OVC020
      TEMPO 2918/2919 2SM BR BKN004 OVC010
     FM292200 22005KT P6SM BKN025 OVC040
     FM300300 23004KT P6SM VCSH BKN015 OVC035
     FM300700 23003KT P6SM -RASN OVC012
     FM301400 33013KT P6SM -SHSN OVC015=



000
FTUS43 KDLH 291700
TAFHYR
TAF
KHYR 291722Z 2918/3018 VRB03KT P6SM OVC019
     FM291900 28006KT P6SM BKN025 OVC040
      TEMPO 2922/3002 SCT025 BKN040
     FM300200 VRB03KT P6SM OVC035
     FM301000 VRB03KT P6SM VCSH OVC035
     FM301600 29003KT P6SM VCSH OVC025=



000
FTUS43 KDLH 291700
TAFBRD
TAF
KBRD 291722Z 2918/3018 25007KT P6SM OVC011
     FM292000 27006KT P6SM BKN022 OVC040
     FM292200 21004KT P6SM SCT035 BKN080
     FM300500 17004KT P6SM BKN040 OVC060
     FM301000 18002KT P6SM -SHRA SCT015 OVC035
     FM301500 35010KT P6SM VCSH OVC025=



000
FTUS43 KDLH 291700
TAFINL
TAF
KINL 291722Z 2918/3018 27007KT P6SM BKN012 OVC020
     FM292200 22005KT P6SM BKN025 OVC040
     FM300300 23004KT P6SM VCSH BKN015 OVC035
     FM300700 23003KT P6SM -RASN OVC012
     FM301400 33013KT P6SM -SHSN OVC015=



000
FTUS43 KDLH 291700
TAFDLH
TAF
KDLH 291722Z 2918/3018 31009KT P6SM OVC011
     FM292000 27007KT P6SM BKN022 BKN035
      TEMPO 2922/3001 P6SM SCT025 BKN040
     FM300200 25005KT P6SM BKN022 OVC040
     FM300800 19004KT P6SM -RASN BKN015 OVC025
     FM301500 33009KT P6SM -RA OVC025=



000
FTUS43 KDLH 291600 AAC
TAFINL
TAF AMD
KINL 291606Z 2916/3012 27005KT P6SM BKN006 OVC011
      TEMPO 2916/2918 SCT006 OVC013
     FM291800 28005KT P6SM OVC013
     FM292200 22005KT P6SM BKN025 OVC040
     FM300300 23004KT P6SM VCSH BKN015 OVC035
     FM300800 23003KT 3SM -SHRA BR BKN012=



000
FTUS43 KDLH 291400 AAA
TAFHYR
TAF AMD
KHYR 291424Z 2914/3012 VRB03KT P6SM OVC022
     FM291900 28006KT P6SM BKN025 OVC040
      TEMPO 2922/3002 SCT025 BKN040
     FM300400 VRB03KT P6SM BKN015
     FM301000 VRB03KT P6SM VCSH BKN020=



000
FTUS43 KDLH 291400 AAB
TAFINL
TAF AMD
KINL 291422Z 2914/3012 27003KT P6SM BKN003 OVC050
      TEMPO 2914/2916 OVC011
     FM291600 28005KT P6SM OVC012
     FM292200 22005KT P6SM BKN025 OVC040
     FM300300 23004KT P6SM VCSH BKN015 OVC035
     FM300800 23003KT 3SM -SHRA BR BKN012=



000
FTUS43 KDLH 291200 AAA
TAFINL
TAF AMD
KINL 291220Z 2912/3012 32006KT P6SM OVC008
      TEMPO 2912/2914 1 1/2SM BR OVC004
     FM291500 28005KT P6SM OVC012
     FM292200 22005KT P6SM BKN025 OVC040
     FM300300 23004KT P6SM VCSH BKN015 OVC035
     FM300800 23003KT 3SM -SHRA BR BKN012=



000
FTUS43 KDLH 291100 RRA
TAFHYR
TAF
KHYR 291141Z 2912/3012 30005KT P6SM BKN015 OVC025
     FM291900 28006KT P6SM BKN025 OVC040
      TEMPO 2922/3002 SCT025 BKN040
     FM300400 VRB03KT P6SM BKN015
     FM301000 VRB03KT P6SM VCSH BKN020=



000
FTUS43 KDLH 291100 RRA
TAFDLH
TAF
KDLH 291141Z 2912/3012 32009KT P6SM OVC012
     FM292000 27007KT P6SM BKN022 BKN035
      TEMPO 2922/3001 P6SM SCT025 BKN040
     FM300200 25005KT P6SM BKN022 OVC040
     FM300800 25004KT 3SM -RA BR BKN015 OVC025=



000
FTUS43 KDLH 291100 RRA
TAFBRD
TAF
KBRD 291141Z 2912/3012 33011KT P6SM OVC014
     FM291900 27006KT P6SM BKN022 OVC040
     FM292200 21004KT P6SM SCT035 BKN080
     FM300500 17004KT P6SM VCSH BKN040 OVC060
     FM301000 09004KT 5SM -SHRA BR BKN015 OVC035=



000
FTUS43 KDLH 291100 RRA
TAFINL
TAF
KINL 291141Z 2912/3012 32006KT P6SM OVC008
     FM291500 28005KT P6SM OVC012
     FM292200 22005KT P6SM BKN025 OVC040
     FM300300 23004KT P6SM VCSH BKN015 OVC035
     FM300800 23003KT 3SM -SHRA BR BKN012=



000
FTUS43 KDLH 290900 AAA
TAFINL
TAF AMD
KINL 290918Z 2909/3006 33008KT 4SM BR OVC008
      TEMPO 2909/2913 1SM BR
     FM291400 31008KT P6SM OVC011
     FM291700 27006KT P6SM OVC017
     FM292200 22005KT P6SM BKN025 OVC040=



000
FTUS43 KDLH 290900 AAA
TAFDLH
TAF AMD
KDLH 290917Z 2909/3006 33010G18KT P6SM OVC012
     FM291400 30010G14KT P6SM OVC015
     FM292000 26008KT P6SM BKN022 BKN035
     FM300200 19007KT P6SM BKN028 OVC050=



000
FTUS43 KDLH 290600 AAA
TAFDLH
TAF AMD
KDLH 290603Z 2906/3006 30014G20KT 6SM -DZ SCT008 OVC012
     FM290900 33010G18KT P6SM OVC009
     FM291400 30010G14KT P6SM OVC015
     FM292000 26008KT P6SM BKN022 BKN035
     FM300200 19007KT P6SM BKN028 OVC050=



000
FTUS43 KDLH 290500
TAFHYR
TAF
KHYR 290536Z 2906/3006 28007KT P6SM -SHRASN BKN009 OVC015
     FM290900 31007KT P6SM OVC014
     FM292000 27005KT P6SM BKN027 BKN040
     FM300000 VRB03KT P6SM BKN025 BKN060=



000
FTUS43 KDLH 290500
TAFINL
TAF
KINL 290536Z 2906/3006 33010KT P6SM SCT009 OVC019
      TEMPO 2906/2908 -SHRASN OVC008
     FM290900 33009G16KT P6SM OVC006
     FM291400 31008KT P6SM OVC011
     FM291700 27006KT P6SM OVC017
     FM292200 22005KT P6SM BKN025 OVC040=



000
FTUS43 KDLH 290500
TAFBRD
TAF
KBRD 290536Z 2906/3006 31014G20KT P6SM OVC018
      TEMPO 2906/2909 -SHRASN BKN009 OVC016
     FM290900 32011G18KT P6SM SCT008 OVC018
     FM291300 30009KT P6SM SCT010 BKN015
     FM291800 27006KT P6SM BKN022 OVC050
     FM292200 24004KT P6SM BKN035 BKN050
     FM300200 19006KT P6SM VCSH BKN040 OVC060=



000
FTUS43 KDLH 290500
TAFDLH
TAF
KDLH 290536Z 2906/3006 30014G21KT P6SM SCT008 OVC014
     FM290900 33010G18KT P6SM OVC009
     FM291400 30010G14KT P6SM OVC015
     FM292000 26008KT P6SM BKN022 BKN035
     FM300200 19007KT P6SM BKN028 OVC050=



000
FTUS43 KDLH 290300 AAB
TAFHYR
TAF AMD
KHYR 290352Z 2904/2924 28008KT P6SM -SHRASN BKN014 OVC022
     FM290900 31007KT P6SM OVC014
     FM292000 27005KT P6SM BKN027 BKN040=



000
FTUS43 KDLH 290200 AAB
TAFINL
TAF AMD
KINL 290224Z 2902/2924 34012KT P6SM -RA SCT010 OVC015
      TEMPO 2903/2905 5SM -SN BKN009 OVC014
     FM290900 33009G16KT P6SM OVC006
     FM291400 31008KT P6SM OVC011
     FM291700 27006KT P6SM OVC017
     FM292200 22005KT P6SM BKN025 OVC040=



000
FTUS43 KDLH 290200 AAA
TAFHYR
TAF AMD
KHYR 290224Z 2902/2924 28008G13KT P6SM -RA SCT012 BKN022 OVC028
     FM290500 29010G18KT P6SM VCSH SCT008 OVC013
      TEMPO 2905/2909 -SHRA BKN008
     FM291500 32009KT P6SM OVC010
     FM292000 27005KT P6SM BKN019 BKN040=



000
FTUS43 KDLH 290200 AAA
TAFDLH
TAF AMD
KDLH 290219Z 2902/2924 28015G24KT P6SM OVC010
      TEMPO 2903/2907 5SM -SHRASN BKN008 OVC017
     FM290700 30013G20KT P6SM VCSH SCT008 OVC015
     FM290900 33010G18KT P6SM OVC015
     FM291400 30010G14KT P6SM OVC015
     FM292000 26008KT P6SM BKN022 BKN035=



000
FTUS43 KDLH 290000 AAA
TAFINL
TAF AMD
KINL 290014Z 2900/2924 34012KT P6SM -RA OVC008
     FM290100 34012G17KT 3SM -SN OVC006
     FM290900 33009G16KT P6SM OVC006
     FM291400 31008KT P6SM OVC011
     FM291700 27006KT P6SM OVC017
     FM292200 22005KT P6SM BKN025 OVC040=



000
FTUS43 KDLH 290000 AAA
TAFDLH
TAF AMD
KDLH 290001Z 2900/2924 28016G26KT 4SM -SN SCT008 BKN011 OVC019
     FM290100 29016G24KT P6SM -RA BKN013 OVC022
     FM290500 30013G20KT P6SM VCSH SCT008 OVC015
     FM290900 33010G18KT P6SM OVC015
     FM291400 30010G14KT P6SM OVC015
     FM292000 26008KT P6SM BKN022 BKN035=



000
FTUS43 KDLH 282300
TAFDLH
TAF
KDLH 282340Z 2900/2924 28016G26KT P6SM -RA SCT008 BKN015 OVC035
     FM290500 30013G20KT P6SM VCSH SCT008 OVC015
     FM290900 33010G18KT P6SM OVC015
     FM291400 30010G14KT P6SM OVC015
     FM292000 26008KT P6SM BKN022 BKN035=



000
FTUS43 KDLH 282300
TAFHYR
TAF
KHYR 282340Z 2900/2924 28008G13KT P6SM -RA SCT012 BKN018 OVC028
     FM290500 29010G18KT P6SM VCSH SCT008 OVC013
      TEMPO 2905/2909 -SHRA BKN008
     FM291500 32009KT P6SM OVC010
     FM292000 27005KT P6SM BKN019 BKN040=



000
FTUS43 KDLH 282300
TAFBRD
TAF
KBRD 282340Z 2900/2924 29017G24KT P6SM -RA OVC021
      TEMPO 2900/2903 P6SM -RASN
     FM290400 30013G22KT P6SM VCSH OVC025
     FM290800 32011G18KT P6SM SCT008 OVC018
     FM291300 30009KT P6SM SCT010 BKN015
     FM291800 27006KT P6SM BKN022 OVC050
     FM292200 24004KT P6SM BKN035 BKN050=



000
FTUS43 KDLH 282300
TAFINL
TAF
KINL 282340Z 2900/2924 30010KT P6SM -RA OVC008
     FM290130 32010G17KT 5SM -SN OVC006
     FM290900 33009G16KT P6SM OVC006
     FM291400 31008KT P6SM OVC011
     FM291700 27006KT P6SM OVC017
     FM292200 22005KT P6SM BKN025 OVC040=



000
FTUS43 KDLH 282100 AAC
TAFINL
TAF AMD
KINL 282126Z 2821/2918 27012G20KT P6SM -RA OVC008
      TEMPO 2822/2824 5SM -SN OVC010
     FM290000 30010G17KT P6SM -RASN OVC010
     FM290400 33008G16KT P6SM OVC008
     FM291400 32005KT P6SM OVC015=



000
FTUS43 KDLH 282100 AAA
TAFHYR
TAF AMD
KHYR 282115Z 2821/2918 27014G24KT P6SM VCSH SCT015 OVC035
     FM290000 27014G20KT P6SM VCSH SCT008 BKN015
     FM290400 29010G18KT P6SM OVC008
     FM291500 32006KT P6SM OVC015=



    US Dept of Commerce
    National Oceanic and Atmospheric Administration
    National Weather Service
    1325 East West Highway
    Silver Spring, MD 20910
    Page Author: NWS Internet Services Team
Disclaimer
Information Quality
Credits
Glossary
Privacy Policy
Freedom of Information Act (FOIA)
About Us
Career Opportunities